Time;durP1;ratioP1;P1;durP2;ratioP2;P2;SDS_P1;SDS_P2;PMS_P1;PMS_P2;Temp;Humidity;BMP_temperature;BMP_pressure;BME280_temperature;BME280_humidity;BME280_pressure;Samples;Min_cycle;Max_cycle;Signal;HPM_P1;HPM_P2
2021/11/13 00:00:26;;;;;;;3.70;2.97;;;;;;;;;;4587067;27;20031;-58
2021/11/13 00:02:37;;;;;;;4.40;2.80;;;;;;;;;;4585412;27;20114;-58
2021/11/13 00:04:47;;;;;;;4.27;2.77;;;;;;;;;;4584907;27;20583;-58
2021/11/13 00:06:57;;;;;;;3.40;2.70;;;;;;;;;;4585553;27;22024;-58
2021/11/13 00:09:09;;;;;;;3.60;2.87;;;;;;;;;;4584543;27;21846;-58
2021/11/13 00:11:19;;;;;;;2.70;2.40;;;;;;;;;;4586837;27;20039;-58
2021/11/13 00:13:30;;;;;;;3.43;2.53;;;;;;;;;;4585290;27;20038;-58
2021/11/13 00:15:40;;;;;;;3.33;2.50;;;;;;;;;;4585612;27;20051;-58
2021/11/13 00:17:51;;;;;;;3.40;2.37;;;;;;;;;;4586043;27;20031;-58
2021/11/13 00:20:03;;;;;;;3.80;2.42;;;;;;;;;;4586685;27;20101;-58
2021/11/13 00:22:14;;;;;;;3.63;2.40;;;;;;;;;;4585924;27;20510;-58
2021/11/13 00:24:25;;;;;;;4.07;2.77;;;;;;;;;;4585743;27;20043;-58
2021/11/13 00:26:35;;;;;;;2.70;2.17;;;;;;;;;;4586054;27;20016;-58
2021/11/13 00:28:46;;;;;;;3.00;2.47;;;;;;;;;;4584297;27;20763;-58
2021/11/13 00:30:56;;;;;;;3.43;2.70;;;;;;;;;;4587701;27;20033;-58
2021/11/13 00:33:07;;;;;;;3.53;2.30;;;;;;;;;;4585739;27;22866;-58
2021/11/13 00:35:18;;;;;;;2.45;2.08;;;;;;;;;;4584610;27;20051;-58
2021/11/13 00:37:29;;;;;;;3.30;2.27;;;;;;;;;;4585022;27;20557;-58
2021/11/13 00:39:39;;;;;;;4.63;2.37;;;;;;;;;;4585596;27;20365;-58
2021/11/13 00:41:50;;;;;;;3.87;2.50;;;;;;;;;;4590354;27;20028;-57
2021/11/13 00:44:00;;;;;;;2.57;2.00;;;;;;;;;;4586373;27;20549;-57
2021/11/13 00:46:11;;;;;;;2.17;1.70;;;;;;;;;;4550756;27;20511;-57
2021/11/13 00:48:21;;;;;;;2.40;1.87;;;;;;;;;;4586353;27;20040;-57
2021/11/13 00:50:35;;;;;;;3.22;2.53;;;;;;;;;;4586645;27;20081;-58
2021/11/13 00:52:45;;;;;;;3.30;2.22;;;;;;;;;;4584987;27;20118;-58
2021/11/13 00:54:56;;;;;;;4.13;2.17;;;;;;;;;;4586267;27;20095;-58
2021/11/13 00:57:09;;;;;;;3.27;2.33;;;;;;;;;;4585256;27;20059;-58
2021/11/13 00:59:19;;;;;;;2.78;2.17;;;;;;;;;;4584971;27;20427;-58
2021/11/13 01:01:30;;;;;;;2.87;2.13;;;;;;;;;;4584054;27;20031;-57
2021/11/13 01:03:40;;;;;;;3.27;2.20;;;;;;;;;;4587230;27;20035;-58
2021/11/13 01:05:51;;;;;;;3.07;2.20;;;;;;;;;;4584240;27;20032;-58
2021/11/13 01:08:02;;;;;;;2.73;2.20;;;;;;;;;;4587489;27;20477;-58
2021/11/13 01:10:16;;;;;;;2.83;2.08;;;;;;;;;;4585914;27;20164;-58
2021/11/13 01:12:27;;;;;;;2.28;2.05;;;;;;;;;;4585453;27;21242;-58
2021/11/13 01:14:40;;;;;;;3.23;2.20;;;;;;;;;;4586615;27;20035;-58
2021/11/13 01:16:51;;;;;;;3.67;2.28;;;;;;;;;;4586109;27;20051;-58
2021/11/13 01:19:02;;;;;;;2.55;1.88;;;;;;;;;;4571541;27;20043;-58
2021/11/13 01:21:12;;;;;;;2.65;2.17;;;;;;;;;;4582727;27;20114;-58
2021/11/13 01:23:23;;;;;;;3.43;2.20;;;;;;;;;;4582596;27;20038;-57
2021/11/13 01:25:34;;;;;;;2.20;1.90;;;;;;;;;;4583248;27;20031;-58
2021/11/13 01:27:44;;;;;;;2.30;1.87;;;;;;;;;;4583770;27;20081;-58
2021/11/13 01:29:55;;;;;;;2.90;2.20;;;;;;;;;;4583185;27;20365;-58
2021/11/13 01:32:09;;;;;;;2.55;2.05;;;;;;;;;;4584282;27;20066;-58
2021/11/13 01:34:20;;;;;;;2.80;2.00;;;;;;;;;;4585608;27;20594;-58
2021/11/13 01:36:31;;;;;;;2.70;1.90;;;;;;;;;;4587088;27;20070;-58
2021/11/13 01:38:42;;;;;;;2.70;2.20;;;;;;;;;;4585100;27;20028;-58
2021/11/13 01:40:52;;;;;;;2.67;2.07;;;;;;;;;;4584281;27;20341;-58
2021/11/13 01:43:03;;;;;;;3.07;2.20;;;;;;;;;;4580975;27;30477;-58
2021/11/13 01:45:15;;;;;;;3.40;2.37;;;;;;;;;;4584353;27;20097;-58
2021/11/13 01:47:26;;;;;;;3.40;2.13;;;;;;;;;;4583174;27;20095;-58
2021/11/13 01:49:37;;;;;;;3.00;2.17;;;;;;;;;;4583802;27;20020;-58
2021/11/13 01:51:49;;;;;;;2.90;2.00;;;;;;;;;;4583947;27;20031;-58
2021/11/13 01:54:05;;;;;;;2.20;1.92;;;;;;;;;;4583820;27;20032;-59
2021/11/13 01:56:17;;;;;;;3.38;2.10;;;;;;;;;;4583365;27;20095;-58
2021/11/13 01:58:28;;;;;;;2.95;2.10;;;;;;;;;;4584309;27;20042;-58
2021/11/13 02:00:48;;;;;;;3.57;2.33;;;;;;;;;;4599330;27;20041;-58
2021/11/13 02:03:00;;;;;;;3.15;2.50;;;;;;;;;;4584215;27;20023;-57
2021/11/13 02:05:10;;;;;;;3.17;2.38;;;;;;;;;;4584849;27;20057;-58
2021/11/13 02:07:22;;;;;;;3.20;2.57;;;;;;;;;;4581732;27;20122;-58
2021/11/13 02:09:33;;;;;;;3.13;2.17;;;;;;;;;;4582340;27;20516;-58
2021/11/13 02:11:43;;;;;;;3.20;2.33;;;;;;;;;;4582428;27;20666;-58
2021/11/13 02:13:55;;;;;;;2.83;2.20;;;;;;;;;;4583277;27;29563;-58
2021/11/13 02:16:08;;;;;;;3.33;2.28;;;;;;;;;;4583092;27;20070;-58
2021/11/13 02:18:19;;;;;;;2.63;2.17;;;;;;;;;;4582907;27;20587;-59
2021/11/13 02:20:37;;;;;;;3.07;2.27;;;;;;;;;;4580766;27;20420;-58
2021/11/13 02:22:48;;;;;;;3.22;2.40;;;;;;;;;;4571299;27;20133;-58
2021/11/13 02:24:59;;;;;;;3.42;2.38;;;;;;;;;;4583881;27;20792;-58
2021/11/13 02:27:09;;;;;;;2.40;2.10;;;;;;;;;;4581711;27;23365;-58
2021/11/13 02:29:24;;;;;;;3.50;2.10;;;;;;;;;;4581287;27;20036;-58
2021/11/13 02:31:38;;;;;;;3.63;2.40;;;;;;;;;;4584742;27;20032;-58
2021/11/13 02:33:48;;;;;;;3.03;2.45;;;;;;;;;;4594457;27;20130;-60
2021/11/13 02:35:59;;;;;;;3.27;2.40;;;;;;;;;;4588443;27;20501;-58
2021/11/13 02:38:21;;;;;;;3.27;2.20;;;;;;;;;;4583976;27;20598;-58
2021/11/13 02:40:31;;;;;;;2.90;2.28;;;;;;;;;;4583626;27;20991;-58
2021/11/13 02:42:42;;;;;;;2.67;2.17;;;;;;;;;;4582633;27;20055;-57
2021/11/13 02:44:53;;;;;;;2.83;2.28;;;;;;;;;;4589129;27;20085;-58
2021/11/13 02:47:04;;;;;;;3.22;2.33;;;;;;;;;;4584699;27;20074;-58
2021/11/13 02:49:15;;;;;;;3.00;2.30;;;;;;;;;;4551091;27;20143;-58
2021/11/13 02:51:25;;;;;;;2.60;2.20;;;;;;;;;;4584847;27;20075;-58
2021/11/13 02:53:36;;;;;;;2.87;2.20;;;;;;;;;;4585600;27;20028;-58
2021/11/13 02:55:49;;;;;;;3.08;2.10;;;;;;;;;;4582798;27;20062;-58
2021/11/13 02:58:02;;;;;;;3.05;2.20;;;;;;;;;;4583970;27;20036;-58
2021/11/13 03:00:15;;;;;;;2.40;1.97;;;;;;;;;;4581693;27;20040;-58
2021/11/13 03:02:27;;;;;;;2.78;2.03;;;;;;;;;;4589286;27;20107;-58
2021/11/13 03:04:38;;;;;;;2.33;1.93;;;;;;;;;;4583762;27;20031;-58
2021/11/13 03:06:48;;;;;;;2.80;2.17;;;;;;;;;;4583332;27;20040;-58
2021/11/13 03:08:59;;;;;;;3.50;2.17;;;;;;;;;;4583284;27;20031;-58
2021/11/13 03:11:14;;;;;;;2.47;2.10;;;;;;;;;;4594897;27;20042;-58
2021/11/13 03:13:25;;;;;;;2.53;1.70;;;;;;;;;;4572310;27;20678;-57
2021/11/13 03:15:41;;;;;;;3.13;2.17;;;;;;;;;;4588640;27;20054;-59
2021/11/13 03:17:56;;;;;;;2.60;2.03;;;;;;;;;;4588386;27;20063;-58
2021/11/13 03:20:09;;;;;;;3.17;1.80;;;;;;;;;;4574410;27;20036;-58
2021/11/13 03:22:20;;;;;;;3.78;2.30;;;;;;;;;;4582906;27;20072;-58
2021/11/13 03:24:31;;;;;;;3.23;2.63;;;;;;;;;;4587479;27;23440;-58
2021/11/13 03:26:41;;;;;;;2.90;2.10;;;;;;;;;;4579587;27;20034;-58
2021/11/13 03:28:55;;;;;;;3.57;2.47;;;;;;;;;;4587613;27;24142;-58
2021/11/13 03:31:06;;;;;;;4.18;2.40;;;;;;;;;;4586168;27;20744;-58
2021/11/13 03:33:17;;;;;;;3.55;2.55;;;;;;;;;;4591624;27;20050;-58
2021/11/13 03:35:28;;;;;;;3.25;2.47;;;;;;;;;;4587537;27;20040;-58
2021/11/13 03:37:40;;;;;;;3.38;2.20;;;;;;;;;;4586402;27;20047;-58
2021/11/13 03:39:50;;;;;;;;;;;;;;;;;;4587901;27;20035;-58
2021/11/13 03:42:01;;;;;;;3.45;2.60;;;;;;;;;;4586230;27;19927;-58
2021/11/13 03:44:11;;;;;;;4.00;2.67;;;;;;;;;;4588712;27;20031;-57
2021/11/13 03:46:22;;;;;;;3.63;2.43;;;;;;;;;;4589267;27;20514;-58
2021/11/13 03:48:33;;;;;;;3.63;2.60;;;;;;;;;;4584883;27;20052;-58
2021/11/13 03:50:45;;;;;;;3.08;2.40;;;;;;;;;;4587044;27;20047;-58
2021/11/13 03:52:56;;;;;;;3.47;2.60;;;;;;;;;;4588535;27;20047;-58
2021/11/13 03:55:07;;;;;;;3.28;2.50;;;;;;;;;;4587371;27;20598;-58
2021/11/13 03:57:17;;;;;;;3.72;2.33;;;;;;;;;;4586717;27;20046;-58
2021/11/13 03:59:28;;;;;;;3.80;2.50;;;;;;;;;;4583949;27;20035;-58
2021/11/13 04:01:38;;;;;;;3.47;2.40;;;;;;;;;;4585764;27;20090;-58
2021/11/13 04:03:48;;;;;;;4.03;2.67;;;;;;;;;;4586892;27;20283;-58
2021/11/13 04:06:02;;;;;;;4.18;2.58;;;;;;;;;;4583721;27;20584;-57
2021/11/13 04:08:13;;;;;;;3.57;2.43;;;;;;;;;;4585211;27;20191;-58
2021/11/13 04:10:23;;;;;;;4.73;2.80;;;;;;;;;;4590530;27;20070;-58
2021/11/13 04:12:35;;;;;;;5.10;2.97;;;;;;;;;;4584638;27;20784;-58
2021/11/13 04:14:46;;;;;;;3.75;2.78;;;;;;;;;;4588500;27;20146;-57
2021/11/13 04:16:56;;;;;;;4.80;3.03;;;;;;;;;;4587172;27;20075;-58
2021/11/13 04:19:10;;;;;;;4.70;2.73;;;;;;;;;;4590449;27;20024;-58
2021/11/13 04:21:21;;;;;;;4.32;2.40;;;;;;;;;;4585027;27;20061;-58
2021/11/13 04:23:33;;;;;;;4.70;2.93;;;;;;;;;;4586111;27;20043;-58
2021/11/13 04:25:43;;;;;;;4.05;2.67;;;;;;;;;;4583053;27;20594;-58
2021/11/13 04:27:54;;;;;;;4.17;2.67;;;;;;;;;;4586983;27;20036;-58
2021/11/13 04:30:07;;;;;;;4.23;2.40;;;;;;;;;;4584179;27;20036;-58
2021/11/13 04:32:18;;;;;;;5.22;3.15;;;;;;;;;;4585003;27;20820;-58
2021/11/13 04:34:39;;;;;;;4.30;2.50;;;;;;;;;;4585715;27;20051;-58
2021/11/13 04:36:53;;;;;;;4.03;2.53;;;;;;;;;;4585371;27;20036;-58
2021/11/13 04:39:08;;;;;;;4.15;2.42;;;;;;;;;;4585918;27;20032;-57
2021/11/13 04:41:19;;;;;;;3.95;2.60;;;;;;;;;;4585122;27;20040;-58
2021/11/13 04:43:29;;;;;;;5.40;2.73;;;;;;;;;;4585875;27;20522;-58
2021/11/13 04:45:39;;;;;;;4.63;2.60;;;;;;;;;;4586398;27;33834;-58
2021/11/13 04:47:50;;;;;;;4.70;2.57;;;;;;;;;;4587982;27;20085;-58
2021/11/13 04:50:03;;;;;;;4.20;2.40;;;;;;;;;;4585641;27;20059;-58
2021/11/13 04:52:14;;;;;;;4.50;2.50;;;;;;;;;;4585024;27;20525;-58
2021/11/13 04:54:24;;;;;;;5.17;2.60;;;;;;;;;;4590341;27;27585;-58
2021/11/13 04:56:37;;;;;;;4.33;2.63;;;;;;;;;;4585519;27;20082;-58
2021/11/13 04:58:48;;;;;;;6.25;2.75;;;;;;;;;;4590642;27;20072;-58
2021/11/13 05:00:58;;;;;;;3.67;2.70;;;;;;;;;;4583553;27;31997;-58
2021/11/13 05:03:09;;;;;;;5.77;2.93;;;;;;;;;;4583775;27;20034;-58
2021/11/13 05:05:23;;;;;;;4.30;2.60;;;;;;;;;;4586211;27;20028;-58
2021/11/13 05:07:34;;;;;;;4.03;2.50;;;;;;;;;;4587470;27;21320;-58
2021/11/13 05:09:44;;;;;;;4.73;2.60;;;;;;;;;;4584426;27;20031;-58
2021/11/13 05:11:55;;;;;;;3.83;2.57;;;;;;;;;;4586591;27;20039;-58
2021/11/13 05:14:05;;;;;;;3.97;2.40;;;;;;;;;;4585137;27;29192;-58
2021/11/13 05:16:16;;;;;;;5.47;3.03;;;;;;;;;;4584465;27;20040;-58
2021/11/13 05:18:26;;;;;;;4.63;2.87;;;;;;;;;;4601641;27;20074;-58
2021/11/13 05:20:37;;;;;;;3.53;2.50;;;;;;;;;;4585070;27;37287;-58
2021/11/13 05:22:48;;;;;;;3.83;2.37;;;;;;;;;;4586572;27;20036;-58
2021/11/13 05:24:59;;;;;;;4.63;2.60;;;;;;;;;;4586565;27;20054;-58
2021/11/13 05:27:13;;;;;;;5.15;2.70;;;;;;;;;;4583157;27;20040;-58
2021/11/13 05:29:23;;;;;;;3.78;2.30;;;;;;;;;;4584393;27;20035;-57
2021/11/13 05:31:34;;;;;;;4.90;2.77;;;;;;;;;;4584282;27;20073;-58
2021/11/13 05:33:44;;;;;;;3.50;2.57;;;;;;;;;;4587426;27;20468;-57
2021/11/13 05:35:57;;;;;;;4.80;2.50;;;;;;;;;;4583676;27;20070;-58
2021/11/13 05:38:07;;;;;;;5.20;2.60;;;;;;;;;;4596580;27;20673;-60
2021/11/13 05:40:18;;;;;;;4.87;2.80;;;;;;;;;;4585269;27;20035;-58
2021/11/13 05:42:29;;;;;;;4.60;2.50;;;;;;;;;;4585479;27;20088;-58
2021/11/13 05:44:39;;;;;;;4.73;2.50;;;;;;;;;;4596581;27;20436;-58
2021/11/13 05:46:52;;;;;;;4.00;2.60;;;;;;;;;;4589183;27;20042;-58
2021/11/13 05:49:03;;;;;;;4.15;2.33;;;;;;;;;;4585922;27;20032;-58
2021/11/13 05:51:14;;;;;;;3.53;2.30;;;;;;;;;;4583029;27;20085;-58
2021/11/13 05:53:24;;;;;;;4.27;2.53;;;;;;;;;;4581906;27;20075;-58
2021/11/13 05:55:35;;;;;;;5.17;2.63;;;;;;;;;;4583631;27;20297;-58
2021/11/13 05:57:46;;;;;;;4.30;2.45;;;;;;;;;;4584520;27;20070;-59
2021/11/13 05:59:56;;;;;;;4.93;2.50;;;;;;;;;;4584830;27;20043;-57
2021/11/13 06:02:07;;;;;;;4.10;2.50;;;;;;;;;;4589718;27;20065;-58
2021/11/13 06:04:17;;;;;;;6.87;2.47;;;;;;;;;;4583112;27;20035;-58
2021/11/13 06:06:27;;;;;;;3.80;2.33;;;;;;;;;;4584970;27;20915;-58
2021/11/13 06:08:38;;;;;;;3.73;2.50;;;;;;;;;;4584647;27;20034;-57
2021/11/13 06:10:48;;;;;;;5.20;2.90;;;;;;;;;;4584098;27;20031;-58
2021/11/13 06:12:59;;;;;;;5.47;3.20;;;;;;;;;;4583602;27;20032;-58
2021/11/13 06:15:10;;;;;;;4.63;2.53;;;;;;;;;;4583358;27;20982;-58
2021/11/13 06:17:21;;;;;;;4.57;2.63;;;;;;;;;;4583184;27;20077;-58
2021/11/13 06:19:31;;;;;;;4.97;2.80;;;;;;;;;;4584293;27;20088;-58
2021/11/13 06:21:42;;;;;;;3.73;2.50;;;;;;;;;;4583927;27;22794;-58
2021/11/13 06:23:52;;;;;;;4.87;2.60;;;;;;;;;;4585632;27;20028;-58
2021/11/13 06:26:04;;;;;;;5.33;2.97;;;;;;;;;;4566475;27;27665;-57
2021/11/13 06:28:15;;;;;;;5.45;3.15;;;;;;;;;;4583924;27;20586;-57
2021/11/13 06:30:28;;;;;;;5.83;2.63;;;;;;;;;;4583841;27;21898;-58
2021/11/13 06:32:39;;;;;;;6.20;3.47;;;;;;;;;;4583121;27;20063;-57
2021/11/13 06:34:50;;;;;;;5.45;3.25;;;;;;;;;;4584162;27;20555;-57
2021/11/13 06:37:00;;;;;;;5.13;3.07;;;;;;;;;;4587038;27;20048;-57
2021/11/13 06:39:11;;;;;;;4.93;2.80;;;;;;;;;;4582750;27;25763;-57
2021/11/13 06:41:26;;;;;;;4.70;2.97;;;;;;;;;;4583215;27;20032;-57
2021/11/13 06:43:36;;;;;;;4.80;2.85;;;;;;;;;;4581506;27;20130;-57
2021/11/13 06:45:46;;;;;;;6.10;2.90;;;;;;;;;;4582368;27;20198;-57
2021/11/13 06:47:57;;;;;;;4.93;3.00;;;;;;;;;;4583695;27;24156;-57
2021/11/13 06:50:09;;;;;;;5.27;3.00;;;;;;;;;;4587331;27;20016;-57
2021/11/13 06:52:19;;;;;;;4.65;2.83;;;;;;;;;;4586102;27;20043;-57
2021/11/13 06:54:30;;;;;;;6.10;3.00;;;;;;;;;;4585667;27;20038;-57
2021/11/13 06:56:41;;;;;;;4.63;3.00;;;;;;;;;;4586102;27;20519;-58
2021/11/13 06:58:52;;;;;;;5.45;3.03;;;;;;;;;;4586253;27;20042;-58
2021/11/13 07:01:03;;;;;;;4.97;3.00;;;;;;;;;;4587648;27;20043;-58
2021/11/13 07:03:14;;;;;;;4.82;3.00;;;;;;;;;;4591274;27;20604;-57
2021/11/13 07:05:24;;;;;;;4.77;3.07;;;;;;;;;;4581695;27;20035;-58
2021/11/13 07:07:35;;;;;;;4.73;3.07;;;;;;;;;;4579137;27;20024;-57
2021/11/13 07:09:45;;;;;;;4.20;2.90;;;;;;;;;;4585643;27;20035;-58
2021/11/13 07:11:56;;;;;;;5.00;2.93;;;;;;;;;;4584360;27;21238;-57
2021/11/13 07:14:06;;;;;;;5.23;3.43;;;;;;;;;;4585169;27;20082;-57
2021/11/13 07:16:17;;;;;;;5.80;3.10;;;;;;;;;;4587106;27;24892;-58
2021/11/13 07:18:27;;;;;;;4.33;3.30;;;;;;;;;;4587824;27;20031;-58
2021/11/13 07:20:37;;;;;;;5.80;3.13;;;;;;;;;;4589922;27;32587;-58
2021/11/13 07:22:48;;;;;;;5.43;3.30;;;;;;;;;;4590454;27;25156;-58
2021/11/13 07:24:58;;;;;;;3.93;2.80;;;;;;;;;;4585729;27;20032;-58
2021/11/13 07:27:09;;;;;;;4.67;3.17;;;;;;;;;;4586470;27;20557;-58
2021/11/13 07:29:24;;;;;;;5.18;3.00;;;;;;;;;;4588928;27;20109;-58
2021/11/13 07:31:35;;;;;;;4.22;3.17;;;;;;;;;;4589494;27;20035;-58
2021/11/13 07:33:49;;;;;;;4.05;2.92;;;;;;;;;;4589436;27;20154;-57
2021/11/13 07:36:00;;;;;;;5.55;3.05;;;;;;;;;;4585787;27;20039;-58
2021/11/13 07:38:11;;;;;;;4.77;3.07;;;;;;;;;;4586328;27;20020;-58
2021/11/13 07:40:22;;;;;;;;;;;;;;;;;;4582751;27;20259;-58
2021/11/13 07:42:32;;;;;;;4.35;2.83;;;;;;;;;;4583460;27;19911;-58
2021/11/13 07:44:43;;;;;;;3.47;2.50;;;;;;;;;;4584884;27;20040;-58
2021/11/13 07:46:55;;;;;;;6.33;3.03;;;;;;;;;;4584984;27;20444;-58
2021/11/13 07:49:05;;;;;;;5.45;3.38;;;;;;;;;;4585783;27;20053;-57
2021/11/13 07:51:18;;;;;;;4.40;2.87;;;;;;;;;;4581578;27;33609;-58
2021/11/13 07:53:28;;;;;;;3.40;2.42;;;;;;;;;;4582262;27;20067;-58
2021/11/13 07:55:39;;;;;;;5.10;2.93;;;;;;;;;;4583829;27;20196;-58
2021/11/13 07:57:49;;;;;;;3.60;2.43;;;;;;;;;;4585454;27;20036;-57
2021/11/13 08:00:00;;;;;;;3.33;2.47;;;;;;;;;;4583219;27;20403;-57
2021/11/13 08:02:11;;;;;;;4.10;2.70;;;;;;;;;;4583173;27;20669;-58
2021/11/13 08:04:21;;;;;;;3.60;2.30;;;;;;;;;;4584683;27;20039;-58
2021/11/13 08:06:32;;;;;;;3.27;2.70;;;;;;;;;;4586266;27;20035;-57
2021/11/13 08:08:42;;;;;;;3.57;2.50;;;;;;;;;;4584951;27;20043;-57
2021/11/13 08:10:53;;;;;;;4.37;2.57;;;;;;;;;;4584322;27;20111;-58
2021/11/13 08:13:03;;;;;;;3.97;2.53;;;;;;;;;;4583907;27;22030;-58
2021/11/13 08:15:16;;;;;;;3.80;2.23;;;;;;;;;;4585076;27;20043;-58
2021/11/13 08:17:26;;;;;;;4.18;2.70;;;;;;;;;;4585216;27;20603;-58
2021/11/13 08:19:37;;;;;;;3.57;2.50;;;;;;;;;;4585269;27;20080;-58
2021/11/13 08:21:47;;;;;;;3.70;2.50;;;;;;;;;;4583371;27;23424;-58
2021/11/13 08:23:59;;;;;;;3.30;2.33;;;;;;;;;;4585129;27;20043;-58
2021/11/13 08:26:09;;;;;;;3.50;2.53;;;;;;;;;;4583019;27;20603;-58
2021/11/13 08:28:20;;;;;;;4.90;2.83;;;;;;;;;;4585766;27;20031;-58
2021/11/13 08:30:33;;;;;;;3.45;2.40;;;;;;;;;;4585560;27;20031;-58
2021/11/13 08:32:45;;;;;;;4.38;2.88;;;;;;;;;;4585309;27;20802;-58
2021/11/13 08:34:55;;;;;;;4.63;3.03;;;;;;;;;;4583933;27;20031;-58
2021/11/13 08:37:06;;;;;;;3.50;2.63;;;;;;;;;;4585430;27;20059;-57
2021/11/13 08:39:17;;;;;;;3.90;2.17;;;;;;;;;;4583707;27;20040;-60
2021/11/13 08:41:27;;;;;;;3.47;2.53;;;;;;;;;;4585180;27;20032;-59
2021/11/13 08:43:38;;;;;;;2.70;2.33;;;;;;;;;;4590041;27;20051;-59
2021/11/13 08:45:49;;;;;;;4.07;2.33;;;;;;;;;;4589333;27;20125;-56
2021/11/13 08:47:59;;;;;;;3.72;2.53;;;;;;;;;;4585458;27;20035;-58
2021/11/13 08:50:17;;;;;;;3.43;2.70;;;;;;;;;;4582521;27;20074;-56
2021/11/13 08:52:28;;;;;;;3.60;2.40;;;;;;;;;;4583956;27;20666;-57
2021/11/13 08:54:39;;;;;;;4.87;2.87;;;;;;;;;;4584256;27;20036;-57
2021/11/13 08:56:49;;;;;;;3.28;2.50;;;;;;;;;;4585116;27;20587;-56
2021/11/13 08:59:01;;;;;;;3.73;2.50;;;;;;;;;;4586129;27;20027;-57
2021/11/13 09:01:11;;;;;;;3.75;2.80;;;;;;;;;;4585824;27;20085;-57
2021/11/13 09:03:23;;;;;;;4.23;2.77;;;;;;;;;;4586168;27;20047;-57
2021/11/13 09:05:37;;;;;;;3.75;2.58;;;;;;;;;;4585660;27;20024;-57
2021/11/13 09:07:48;;;;;;;5.60;2.78;;;;;;;;;;4585890;27;20043;-57
2021/11/13 09:09:58;;;;;;;3.47;2.60;;;;;;;;;;4584974;27;20043;-58
2021/11/13 09:12:12;;;;;;;3.47;2.43;;;;;;;;;;4583006;27;20031;-56
2021/11/13 09:14:23;;;;;;;3.17;2.53;;;;;;;;;;4582168;27;20574;-57
2021/11/13 09:16:34;;;;;;;3.27;2.50;;;;;;;;;;4584319;27;21814;-58
2021/11/13 09:18:45;;;;;;;4.68;2.78;;;;;;;;;;4572391;27;20032;-58
2021/11/13 09:20:55;;;;;;;4.37;2.87;;;;;;;;;;4589861;27;20040;-56
2021/11/13 09:23:08;;;;;;;3.30;2.40;;;;;;;;;;4589677;27;20065;-57
2021/11/13 09:25:19;;;;;;;3.40;2.20;;;;;;;;;;4581938;27;20551;-56
2021/11/13 09:27:29;;;;;;;3.90;2.60;;;;;;;;;;4584409;27;20731;-56
2021/11/13 09:29:40;;;;;;;3.73;2.77;;;;;;;;;;4582424;27;20317;-56
2021/11/13 09:31:51;;;;;;;2.73;2.17;;;;;;;;;;4583170;27;20024;-56
2021/11/13 09:34:01;;;;;;;4.50;2.47;;;;;;;;;;4578024;27;20585;-56
2021/11/13 09:36:15;;;;;;;3.40;2.42;;;;;;;;;;4582624;27;20040;-56
2021/11/13 09:38:32;;;;;;;4.30;2.43;;;;;;;;;;4585008;27;20051;-57
2021/11/13 09:40:42;;;;;;;3.85;2.60;;;;;;;;;;4583447;27;20052;-56
2021/11/13 09:43:01;;;;;;;3.45;2.33;;;;;;;;;;4585217;27;20112;-56
2021/11/13 09:45:12;;;;;;;3.80;2.63;;;;;;;;;;4584133;27;20031;-56
2021/11/13 09:47:23;;;;;;;4.05;2.38;;;;;;;;;;4583388;27;20337;-56
2021/11/13 09:49:33;;;;;;;4.10;2.67;;;;;;;;;;4585590;27;20101;-57
2021/11/13 09:51:47;;;;;;;3.47;2.27;;;;;;;;;;4600164;27;20031;-56
2021/11/13 09:53:57;;;;;;;3.38;2.80;;;;;;;;;;4584587;27;20036;-56
2021/11/13 09:56:10;;;;;;;4.07;2.40;;;;;;;;;;4589668;27;20044;-57
2021/11/13 09:58:21;;;;;;;4.47;2.60;;;;;;;;;;4581966;27;20062;-56
2021/11/13 10:00:33;;;;;;;;;;;;;;;;;;4584479;27;20618;-57
2021/11/13 10:02:43;;;;;;;2.97;2.30;;;;;;;;;;4582850;27;20429;-57
2021/11/13 10:04:53;;;;;;;3.40;2.57;;;;;;;;;;4583408;27;20282;-56
2021/11/13 10:07:04;;;;;;;3.87;2.50;;;;;;;;;;4584814;27;20092;-57
2021/11/13 10:09:14;;;;;;;3.00;2.23;;;;;;;;;;4587179;27;20040;-57
2021/11/13 10:11:27;;;;;;;4.00;2.43;;;;;;;;;;4586208;27;20078;-58
2021/11/13 10:13:44;;;;;;;3.53;2.30;;;;;;;;;;4582769;27;20049;-57
2021/11/13 10:15:57;;;;;;;3.67;2.50;;;;;;;;;;4587990;27;20663;-57
2021/11/13 10:18:16;;;;;;;3.08;2.30;;;;;;;;;;4589561;27;20180;-57
2021/11/13 10:20:27;;;;;;;3.03;2.40;;;;;;;;;;4585314;27;20047;-58
2021/11/13 10:22:43;;;;;;;3.03;2.37;;;;;;;;;;4587916;27;20035;-57
2021/11/13 10:24:54;;;;;;;3.75;2.53;;;;;;;;;;4603481;27;20036;-57
2021/11/13 10:27:09;;;;;;;3.83;2.60;;;;;;;;;;4586007;27;20040;-57
2021/11/13 10:29:25;;;;;;;3.00;2.10;;;;;;;;;;4592063;27;20817;-58
2021/11/13 10:31:41;;;;;;;3.40;2.30;;;;;;;;;;4589079;27;20034;-58
2021/11/13 10:33:54;;;;;;;4.28;2.35;;;;;;;;;;4586458;27;20039;-58
2021/11/13 10:36:07;;;;;;;3.95;2.50;;;;;;;;;;4594070;27;20050;-58
2021/11/13 10:38:20;;;;;;;4.35;2.35;;;;;;;;;;4588540;27;20024;-58
2021/11/13 10:40:32;;;;;;;2.90;2.30;;;;;;;;;;4586927;27;20035;-58
2021/11/13 10:42:42;;;;;;;3.25;2.28;;;;;;;;;;4587916;27;20825;-58
2021/11/13 10:44:58;;;;;;;2.57;2.00;;;;;;;;;;4586743;27;20036;-58
2021/11/13 10:47:21;;;;;;;2.58;2.20;;;;;;;;;;4589139;27;20815;-58
2021/11/13 10:49:31;;;;;;;2.97;2.20;;;;;;;;;;4586294;27;20189;-58
2021/11/13 10:52:00;;;;;;;2.20;1.90;;;;;;;;;;4585822;27;20143;-58
2021/11/13 10:54:13;;;;;;;2.55;2.03;;;;;;;;;;4585388;27;20607;-58
2021/11/13 10:56:26;;;;;;;2.60;2.00;;;;;;;;;;4588294;27;20960;-58
2021/11/13 10:58:37;;;;;;;2.50;1.88;;;;;;;;;;4586396;27;20130;-58
2021/11/13 11:00:48;;;;;;;3.33;2.00;;;;;;;;;;4586959;27;20031;-57
2021/11/13 11:03:06;;;;;;;2.53;1.83;;;;;;;;;;4591314;27;20147;-58
2021/11/13 11:05:17;;;;;;;2.45;1.88;;;;;;;;;;4600526;27;20058;-61
2021/11/13 11:07:27;;;;;;;3.90;2.30;;;;;;;;;;4589155;27;20506;-58
2021/11/13 11:09:43;;;;;;;2.60;2.00;;;;;;;;;;4585193;27;20525;-58
2021/11/13 11:11:57;;;;;;;2.17;1.80;;;;;;;;;;4585671;27;20559;-60
2021/11/13 11:14:10;;;;;;;2.13;1.73;;;;;;;;;;4586445;27;20021;-58
2021/11/13 11:16:32;;;;;;;3.33;1.80;;;;;;;;;;4587980;27;20558;-58
2021/11/13 11:18:54;;;;;;;2.05;1.75;;;;;;;;;;4586345;27;20630;-58
2021/11/13 11:21:04;;;;;;;2.85;1.92;;;;;;;;;;4586594;27;20023;-57
2021/11/13 11:23:15;;;;;;;1.90;1.63;;;;;;;;;;4602017;27;20028;-58
2021/11/13 11:25:27;;;;;;;2.35;1.90;;;;;;;;;;4588530;27;21170;-58
2021/11/13 11:27:43;;;;;;;2.38;1.80;;;;;;;;;;4586298;27;20032;-58
2021/11/13 11:30:03;;;;;;;3.30;1.98;;;;;;;;;;4591552;27;20019;-58
2021/11/13 11:32:15;;;;;;;2.28;1.63;;;;;;;;;;4587799;27;20020;-59
2021/11/13 11:34:44;;;;;;;2.13;1.77;;;;;;;;;;4583890;27;20127;-58
2021/11/13 11:36:57;;;;;;;2.30;1.60;;;;;;;;;;4586656;27;20073;-58
2021/11/13 11:39:07;;;;;;;2.17;1.73;;;;;;;;;;4591030;27;20024;-58
2021/11/13 11:41:18;;;;;;;1.90;1.70;;;;;;;;;;4586024;27;20019;-58
2021/11/13 11:43:31;;;;;;;1.83;1.57;;;;;;;;;;4586057;27;20119;-58
2021/11/13 11:45:43;;;;;;;3.03;1.63;;;;;;;;;;4586052;27;20028;-58
2021/11/13 11:47:55;;;;;;;2.25;1.65;;;;;;;;;;4590691;27;20012;-58
2021/11/13 11:50:09;;;;;;;2.88;2.17;;;;;;;;;;4586977;27;20066;-58
2021/11/13 11:52:21;;;;;;;2.53;1.90;;;;;;;;;;4590111;27;20121;-58
2021/11/13 11:54:32;;;;;;;2.60;1.92;;;;;;;;;;4584412;27;20035;-58
2021/11/13 11:56:43;;;;;;;2.67;2.17;;;;;;;;;;4593667;27;20035;-58
2021/11/13 11:58:54;;;;;;;2.87;2.00;;;;;;;;;;4585974;27;20035;-58
2021/11/13 12:01:09;;;;;;;2.03;1.83;;;;;;;;;;4586984;27;20020;-58
2021/11/13 12:03:25;;;;;;;2.33;1.83;;;;;;;;;;4585276;27;20154;-58
2021/11/13 12:05:37;;;;;;;2.22;1.90;;;;;;;;;;4584026;27;20587;-58
2021/11/13 12:07:50;;;;;;;2.25;1.85;;;;;;;;;;4584113;27;20024;-58
2021/11/13 12:10:06;;;;;;;2.88;2.10;;;;;;;;;;4584764;27;20035;-58
2021/11/13 12:12:19;;;;;;;2.85;1.90;;;;;;;;;;4583503;27;21263;-58
2021/11/13 12:14:32;;;;;;;2.53;1.95;;;;;;;;;;4584279;27;20016;-58
2021/11/13 12:16:43;;;;;;;2.00;1.60;;;;;;;;;;4584013;27;20090;-58
2021/11/13 12:18:53;;;;;;;2.30;1.70;;;;;;;;;;4585658;27;20027;-58
2021/11/13 12:21:04;;;;;;;3.17;2.00;;;;;;;;;;4585069;27;20030;-58
2021/11/13 12:23:27;;;;;;;3.00;2.13;;;;;;;;;;4584688;27;20028;-58
2021/11/13 12:25:56;;;;;;;2.67;2.13;;;;;;;;;;4573840;27;20091;-58
2021/11/13 12:28:11;;;;;;;2.63;2.10;;;;;;;;;;4585466;27;20031;-58
2021/11/13 12:30:46;;;;;;;3.15;2.10;;;;;;;;;;4597250;27;21406;-58
2021/11/13 12:32:57;;;;;;;3.95;2.22;;;;;;;;;;4584384;27;20028;-57
2021/11/13 12:35:13;;;;;;;3.47;2.40;;;;;;;;;;4601137;27;27208;-59
2021/11/13 12:37:23;;;;;;;4.63;2.90;;;;;;;;;;4585672;27;20043;-57
2021/11/13 12:39:39;;;;;;;3.73;2.43;;;;;;;;;;4586968;27;20024;-59
2021/11/13 12:42:00;;;;;;;3.47;2.45;;;;;;;;;;4586208;27;20027;-57
2021/11/13 12:44:21;;;;;;;4.95;2.30;;;;;;;;;;4587195;27;20715;-57
2021/11/13 12:46:43;;;;;;;3.75;1.95;;;;;;;;;;4598851;27;20023;-57
2021/11/13 12:49:15;;;;;;;4.20;2.40;;;;;;;;;;4582964;27;20043;-57
2021/11/13 12:51:26;;;;;;;3.05;2.35;;;;;;;;;;4584969;27;20112;-57
2021/11/13 12:53:51;;;;;;;3.67;2.30;;;;;;;;;;4583455;27;20081;-57
2021/11/13 12:56:01;;;;;;;2.75;2.00;;;;;;;;;;4586395;27;20254;-57
2021/11/13 12:58:14;;;;;;;3.27;2.50;;;;;;;;;;4583900;27;20526;-57
2021/11/13 13:00:28;;;;;;;3.47;2.35;;;;;;;;;;4585127;27;20028;-57
2021/11/13 13:02:40;;;;;;;3.38;2.60;;;;;;;;;;4584436;27;20739;-57
2021/11/13 13:04:51;;;;;;;3.88;2.22;;;;;;;;;;4590623;27;20024;-58
2021/11/13 13:07:02;;;;;;;2.80;2.20;;;;;;;;;;4589339;27;20028;-57
2021/11/13 13:09:15;;;;;;;2.75;2.00;;;;;;;;;;4585497;27;20031;-57
2021/11/13 13:11:25;;;;;;;3.58;2.20;;;;;;;;;;4581881;27;20549;-57